createdAt,value
2023-03-15T00:03:40.373Z,1007.90
2023-03-15T00:08:37.557Z,1008.01
2023-03-15T00:13:36.733Z,1008.24
2023-03-15T00:18:35.913Z,1008.39
2023-03-15T00:23:35.108Z,1008.35
2023-03-15T00:28:34.287Z,1008.43
2023-03-15T00:33:34.490Z,1008.40
2023-03-15T00:38:33.668Z,1008.46
2023-03-15T00:43:32.853Z,1008.71
2023-03-15T00:48:32.060Z,1009.14
2023-03-15T00:53:30.277Z,1009.71
2023-03-15T00:58:29.477Z,1010.08
2023-03-15T01:03:28.701Z,1010.14
2023-03-15T01:08:27.886Z,1010.01
2023-03-15T01:13:29.078Z,1010.04
2023-03-15T01:18:27.247Z,1009.93
2023-03-15T01:23:25.438Z,1010.09
2023-03-15T01:28:25.633Z,1010.25
2023-03-15T01:33:23.850Z,1010.29
2023-03-15T01:38:23.062Z,1010.42
2023-03-15T01:43:23.280Z,1010.44
2023-03-15T01:48:22.512Z,1010.58
2023-03-15T01:53:20.708Z,1010.60
2023-03-15T01:58:19.887Z,1010.65
2023-03-15T02:03:19.105Z,1010.80
2023-03-15T02:08:19.300Z,1010.99
2023-03-15T02:13:17.450Z,1011.01
2023-03-15T02:18:16.671Z,1010.99
2023-03-15T02:23:16.913Z,1011.11
2023-03-15T02:28:15.112Z,1011.04
2023-03-15T02:33:14.304Z,1011.14
2023-03-15T02:38:14.523Z,1011.14
2023-03-15T02:43:12.703Z,1011.19
2023-03-15T02:48:11.902Z,1011.25
2023-03-15T02:53:11.089Z,1011.29
2023-03-15T02:58:10.293Z,1011.43
2023-03-15T03:03:10.555Z,1011.57
2023-03-15T03:08:08.737Z,1011.69
2023-03-15T03:13:07.923Z,1012.02
2023-03-15T03:18:07.116Z,1012.21
2023-03-15T03:23:07.288Z,1012.44
2023-03-15T03:28:05.470Z,1012.58
2023-03-15T03:33:04.641Z,1012.62
2023-03-15T03:38:03.822Z,1012.63
2023-03-15T03:43:03.004Z,1012.72
2023-03-15T03:48:03.200Z,1012.76
2023-03-15T03:53:01.376Z,1012.86
2023-03-15T03:58:02.582Z,1012.91
2023-03-15T04:03:01.732Z,1012.98
2023-03-15T04:07:59.911Z,1012.99
2023-03-15T04:12:58.081Z,1013.05
2023-03-15T04:17:57.259Z,1013.01
2023-03-15T04:22:56.412Z,1013.07
2023-03-15T04:27:57.588Z,1013.15
2023-03-15T04:32:56.837Z,1013.15
2023-03-15T04:37:54.099Z,1013.16
2023-03-15T04:42:52.293Z,1013.20
2023-03-15T04:47:52.526Z,1013.30
2023-03-15T04:52:53.714Z,1013.41
2023-03-15T04:57:51.888Z,1013.46
2023-03-15T05:02:52.050Z,1013.60
2023-03-15T05:07:50.225Z,1013.70
2023-03-15T05:12:49.493Z,1013.73
2023-03-15T05:17:48.677Z,1013.76
2023-03-15T05:22:46.909Z,1013.82
2023-03-15T05:27:46.103Z,1014.00
2023-03-15T05:32:45.370Z,1014.12
2023-03-15T05:37:44.632Z,1014.16
2023-03-15T05:42:43.831Z,1014.19
2023-03-15T05:47:44.018Z,1014.21
2023-03-15T05:52:43.186Z,1014.36
2023-03-15T05:57:42.368Z,1014.36
2023-03-15T06:02:41.537Z,1014.37
2023-03-15T06:07:40.728Z,1014.39
2023-03-15T06:12:38.909Z,1014.49
2023-03-15T06:17:39.065Z,1014.52
2023-03-15T06:22:38.262Z,1014.60
2023-03-15T06:27:39.536Z,1014.61
2023-03-15T06:32:35.769Z,1014.67
2023-03-15T06:37:35.567Z,1014.71
2023-03-15T06:42:34.113Z,1014.76
2023-03-15T06:47:33.273Z,1014.78
2023-03-15T06:52:32.471Z,1014.79
2023-03-15T06:57:31.664Z,1014.82
2023-03-15T07:02:31.893Z,1014.80
2023-03-15T07:07:31.097Z,1014.76
2023-03-15T07:12:29.291Z,1014.84
2023-03-15T07:17:28.472Z,1014.95
2023-03-15T07:22:28.686Z,1014.94
2023-03-15T07:27:27.869Z,1014.95
2023-03-15T07:32:26.171Z,1014.95
2023-03-15T07:37:26.218Z,1015.02
2023-03-15T07:42:26.425Z,1015.02
2023-03-15T07:47:23.650Z,1015.01
2023-03-15T07:52:23.858Z,1015.01
2023-03-15T07:57:23.073Z,1015.04
2023-03-15T08:02:21.350Z,1014.97
2023-03-15T08:07:20.532Z,1015.01
2023-03-15T08:12:19.758Z,1014.98
2023-03-15T08:17:18.958Z,1014.97
2023-03-15T08:22:18.306Z,1014.99
2023-03-15T08:27:18.496Z,1014.97
2023-03-15T08:32:16.663Z,1014.98
2023-03-15T08:37:15.851Z,1014.95
2023-03-15T08:42:15.032Z,1015.00
2023-03-15T08:47:14.246Z,1014.95
2023-03-15T08:52:13.448Z,1014.93
2023-03-15T08:57:13.680Z,1014.97
2023-03-15T09:02:12.918Z,1014.93
2023-03-15T09:07:13.120Z,1014.97
2023-03-15T09:12:10.523Z,1014.95
2023-03-15T09:17:10.614Z,1014.94
2023-03-15T09:22:16.952Z,1014.92
2023-03-15T09:27:07.940Z,1015.03
2023-03-15T09:32:08.120Z,1014.98
2023-03-15T09:37:08.441Z,1015.03
2023-03-15T09:42:06.739Z,1015.10
2023-03-15T09:47:04.940Z,1015.00
2023-03-15T09:52:04.156Z,1015.04
2023-03-15T09:57:03.346Z,1015.03
2023-03-15T10:02:03.568Z,1015.04
2023-03-15T10:07:03.753Z,1015.10
2023-03-15T10:12:00.936Z,1015.10
2023-03-15T10:17:01.133Z,1015.09
2023-03-15T10:21:59.351Z,1015.16
2023-03-15T10:26:58.552Z,1015.17
2023-03-15T10:31:57.771Z,1015.11
2023-03-15T10:36:56.971Z,1015.00
2023-03-15T10:41:56.183Z,1014.94
2023-03-15T10:46:55.431Z,1014.94
2023-03-15T10:51:54.603Z,1014.90
2023-03-15T10:56:54.823Z,1014.92
2023-03-15T11:01:53.133Z,1014.91
2023-03-15T11:06:52.364Z,1014.91
2023-03-15T11:11:52.546Z,1014.91
2023-03-15T11:16:50.737Z,1014.89
2023-03-15T11:21:50.902Z,1014.94
2023-03-15T11:26:49.116Z,1014.88
2023-03-15T11:31:49.393Z,1014.74
2023-03-15T11:36:53.158Z,1014.70
2023-03-15T11:41:46.848Z,1014.67
2023-03-15T11:46:46.028Z,1014.64
2023-03-15T11:51:46.204Z,1014.58
2023-03-15T11:56:45.378Z,1014.51
2023-03-15T12:01:45.566Z,1014.44
2023-03-15T12:06:42.757Z,1014.46
2023-03-15T12:11:41.980Z,1014.28
2023-03-15T12:16:41.291Z,1014.25
2023-03-15T12:21:41.388Z,1014.18
2023-03-15T12:26:39.568Z,1014.16
2023-03-15T12:31:38.765Z,1014.15
2023-03-15T12:36:38.959Z,1014.11
2023-03-15T12:41:38.185Z,1014.06
2023-03-15T12:46:36.408Z,1014.04
2023-03-15T12:51:37.617Z,1014.19
2023-03-15T12:56:35.833Z,1014.15
2023-03-15T13:01:34.046Z,1014.10
2023-03-15T13:06:33.270Z,1013.99
2023-03-15T13:11:33.478Z,1014.05
2023-03-15T13:16:33.673Z,1014.07
2023-03-15T13:21:30.853Z,1014.05
2023-03-15T13:26:30.034Z,1014.11
2023-03-15T13:31:31.069Z,1014.16
2023-03-15T13:36:28.516Z,1014.16
2023-03-15T13:41:27.723Z,1014.23
2023-03-15T13:46:26.987Z,1014.19
2023-03-15T13:51:27.058Z,1014.19
2023-03-15T13:56:28.369Z,1014.25
2023-03-15T14:01:24.439Z,1014.35
2023-03-15T14:06:23.656Z,1014.28
2023-03-15T14:11:23.935Z,1014.23
2023-03-15T14:16:22.171Z,1014.31
2023-03-15T14:21:23.358Z,1014.22
2023-03-15T14:26:20.574Z,1014.26
2023-03-15T14:31:19.799Z,1014.26
2023-03-15T14:36:20.001Z,1014.13
2023-03-15T14:41:20.296Z,1014.18
2023-03-15T14:46:18.520Z,1014.19
2023-03-15T14:51:16.748Z,1014.08
2023-03-15T14:56:16.789Z,1014.09
2023-03-15T15:01:17.283Z,1014.12
2023-03-15T15:06:14.523Z,1014.13
2023-03-15T15:11:13.716Z,1014.06
2023-03-15T15:16:12.964Z,1013.98
2023-03-15T15:21:12.165Z,1014.08
2023-03-15T15:26:11.345Z,1013.95
2023-03-15T15:31:11.519Z,1013.98
2023-03-15T15:36:09.724Z,1013.92
2023-03-15T15:41:08.998Z,1013.95
2023-03-15T15:46:10.469Z,1013.95
2023-03-15T15:51:06.500Z,1013.92
2023-03-15T15:56:06.709Z,1014.00
2023-03-15T16:01:06.024Z,1014.12
2023-03-15T16:06:06.091Z,1014.21
2023-03-15T16:11:05.533Z,1014.34
2023-03-15T16:16:03.957Z,1014.30
2023-03-15T16:21:03.873Z,1014.38
2023-03-15T16:26:02.240Z,1014.48
2023-03-15T16:31:01.627Z,1014.50
2023-03-15T16:35:59.558Z,1014.57
2023-03-15T16:40:59.880Z,1014.67
2023-03-15T16:46:00.549Z,1014.78
2023-03-15T16:50:58.572Z,1014.85
2023-03-15T16:55:57.820Z,1014.86
2023-03-15T17:00:57.141Z,1014.94
2023-03-15T17:05:57.178Z,1015.06
2023-03-15T17:10:56.509Z,1015.05
2023-03-15T17:15:55.800Z,1015.11
2023-03-15T17:20:54.692Z,1015.26
2023-03-15T17:25:53.428Z,1015.34
2023-03-15T17:30:59.832Z,1015.38
2023-03-15T17:35:51.738Z,1015.28
2023-03-15T17:40:51.020Z,1015.44
2023-03-15T17:45:50.203Z,1015.49
2023-03-15T17:50:49.425Z,1015.53
2023-03-15T17:55:49.439Z,1015.46
2023-03-15T18:00:48.698Z,1015.49
2023-03-15T18:05:46.764Z,1015.54
2023-03-15T18:10:46.424Z,1015.61
2023-03-15T18:15:45.746Z,1015.67
2023-03-15T18:20:45.009Z,1015.63
2023-03-15T18:25:48.953Z,1015.68
2023-03-15T18:30:43.554Z,1015.65
2023-03-15T18:35:42.739Z,1015.65
2023-03-15T18:40:42.005Z,1015.72
2023-03-15T18:45:40.870Z,1015.63
2023-03-15T18:50:44.530Z,1015.80
2023-03-15T18:55:39.726Z,1015.76
2023-03-15T19:00:38.565Z,1015.82
2023-03-15T19:05:39.133Z,1015.77
2023-03-15T19:10:38.366Z,1015.77
2023-03-15T19:15:36.642Z,1015.78
2023-03-15T19:20:46.008Z,1015.75
2023-03-15T19:25:36.047Z,1015.67
2023-03-15T19:30:34.550Z,1015.67
2023-03-15T19:35:33.919Z,1015.67
2023-03-15T19:40:32.972Z,1015.63
2023-03-15T19:45:32.181Z,1015.60
2023-03-15T19:50:32.085Z,1015.58
2023-03-15T19:55:31.785Z,1015.54
2023-03-15T20:00:31.926Z,1015.53
2023-03-15T20:05:31.817Z,1015.44
2023-03-15T20:10:28.240Z,1015.46
2023-03-15T20:15:33.836Z,1015.52
2023-03-15T20:20:26.818Z,1015.50
2023-03-15T20:25:26.087Z,1015.54
2023-03-15T20:30:26.321Z,1015.64
2023-03-15T20:35:32.160Z,1015.74
2023-03-15T20:40:25.048Z,1015.80
2023-03-15T20:45:23.135Z,1015.79
2023-03-15T20:50:23.874Z,1015.88
2023-03-15T20:55:21.246Z,1015.76
2023-03-15T21:00:21.170Z,1015.87
2023-03-15T21:05:19.997Z,1015.93
2023-03-15T21:10:19.234Z,1015.86
2023-03-15T21:15:18.408Z,1015.93
2023-03-15T21:20:18.582Z,1015.94
2023-03-15T21:25:16.449Z,1016.01
2023-03-15T21:30:16.874Z,1015.94
2023-03-15T21:35:15.228Z,1015.84
2023-03-15T21:40:15.336Z,1015.88
2023-03-15T21:45:13.334Z,1015.88
2023-03-15T21:50:12.621Z,1015.86
2023-03-15T21:55:13.185Z,1015.86
2023-03-15T22:00:11.024Z,1015.83
2023-03-15T22:05:10.352Z,1015.91
2023-03-15T22:10:10.684Z,1015.89
2023-03-15T22:15:08.846Z,1015.84
2023-03-15T22:20:08.152Z,1015.87
2023-03-15T22:25:07.478Z,1015.85
2023-03-15T22:30:06.810Z,1015.81
2023-03-15T22:35:05.973Z,1015.87
2023-03-15T22:40:05.302Z,1015.87
2023-03-15T22:45:05.653Z,1015.89
2023-03-15T22:50:03.949Z,1015.96
2023-03-15T22:55:03.219Z,1015.94
2023-03-15T23:00:02.500Z,1015.93
2023-03-15T23:05:02.940Z,1015.94
2023-03-15T23:10:01.156Z,1015.97
2023-03-15T23:15:01.255Z,1015.92
2023-03-15T23:19:59.414Z,1015.99
2023-03-15T23:24:58.547Z,1016.01
2023-03-15T23:29:57.842Z,1015.95
2023-03-15T23:34:57.154Z,1015.96
2023-03-15T23:39:56.432Z,1016.07
2023-03-15T23:44:55.762Z,1016.02
2023-03-15T23:49:55.152Z,1016.03
2023-03-15T23:54:54.261Z,1016.10
2023-03-15T23:59:54.562Z,1016.12
